Terminal Aerodrome Forecast
Issued by NWS Grand Forks, ND

Home | Current Version | Previous Version | Graphics & Text | Print | Product List | Glossary On
Versions: 1 2 3 4 5 6 7 8 9 10 11 12 13
661
FTUS43 KFGF 220520
TAFFAR
TAF
KFAR 220520Z 2206/2306 19010KT P6SM FEW250
     FM222000 20012G20KT P6SM FEW250
     FM230300 18010KT P6SM SCT150=

USA.gov is the U.S. government's official web portal to all federal, state and local government web resources and services.